Time;durP1;ratioP1;P1;durP2;ratioP2;P2;SDS_P1;SDS_P2;PMS_P1;PMS_P2;Temp;Humidity;BMP_temperature;BMP_pressure;BME280_temperature;BME280_humidity;BME280_pressure;Samples;Min_cycle;Max_cycle;Signal;HPM_P1;HPM_P2
2022/05/27 00:01:28;;;;;;;3.77;2.50;;;;;;;;;;5007521;28;20400;-87
2022/05/27 00:03:55;;;;;;;4.43;2.47;;;;;;;;;;4990801;28;20412;-87
2022/05/27 00:06:21;;;;;;;3.43;2.40;;;;;;;;;;5005834;28;20880;-84
2022/05/27 00:08:47;;;;;;;3.40;2.23;;;;;;;;;;5006734;28;20452;-85
2022/05/27 00:11:14;;;;;;;3.53;2.27;;;;;;;;;;4993946;28;20898;-86
2022/05/27 00:13:41;;;;;;;3.13;2.23;;;;;;;;;;4996614;28;20910;-85
2022/05/27 00:16:07;;;;;;;2.53;1.80;;;;;;;;;;5014791;28;20408;-86
2022/05/27 00:18:33;;;;;;;2.87;2.27;;;;;;;;;;5012267;28;20486;-86
2022/05/27 00:20:59;;;;;;;3.30;2.30;;;;;;;;;;5010379;28;20431;-86
2022/05/27 00:23:26;;;;;;;3.97;2.40;;;;;;;;;;5008433;28;20444;-86
2022/05/27 00:25:52;;;;;;;2.90;2.40;;;;;;;;;;5009036;28;20472;-86
2022/05/27 00:28:18;;;;;;;2.87;1.90;;;;;;;;;;5007845;28;20432;-85
2022/05/27 00:30:45;;;;;;;3.70;2.17;;;;;;;;;;5009138;28;20526;-87
2022/05/27 00:33:11;;;;;;;6.40;2.50;;;;;;;;;;5007002;28;20405;-87
2022/05/27 00:35:40;;;;;;;3.40;2.83;;;;;;;;;;5008563;28;20411;-86
2022/05/27 00:38:06;;;;;;;2.40;2.03;;;;;;;;;;5007647;28;20876;-86
2022/05/27 00:40:41;;;;;;;3.87;2.23;;;;;;;;;;4991627;28;20424;-86
2022/05/27 00:43:07;;;;;;;3.67;2.33;;;;;;;;;;5009368;28;20744;-88
2022/05/27 00:45:35;;;;;;;3.47;2.23;;;;;;;;;;5009713;28;20412;-85
2022/05/27 00:48:02;;;;;;;3.77;1.80;;;;;;;;;;5010116;28;20404;-85
2022/05/27 00:50:30;;;;;;;3.03;2.10;;;;;;;;;;5011930;28;20408;-85
2022/05/27 00:52:56;;;;;;;4.40;2.27;;;;;;;;;;5008920;28;20404;-86
2022/05/27 00:55:24;;;;;;;3.97;2.07;;;;;;;;;;4991407;28;20412;-86
2022/05/27 00:57:52;;;;;;;3.90;2.00;;;;;;;;;;4991326;28;20456;-85
2022/05/27 01:00:21;;;;;;;3.20;1.80;;;;;;;;;;5077088;23;20488;-85
2022/05/27 01:02:47;;;;;;;4.93;2.17;;;;;;;;;;5067283;28;20460;-83
2022/05/27 01:05:14;;;;;;;3.23;2.23;;;;;;;;;;5068013;28;20394;-81
2022/05/27 01:07:40;;;;;;;2.50;1.80;;;;;;;;;;5067529;28;20406;-83
2022/05/27 01:10:08;;;;;;;3.90;2.40;;;;;;;;;;5067393;28;20421;-81
2022/05/27 01:12:53;;;;;;;3.23;2.20;;;;;;;;;;5067275;28;20890;-84
2022/05/27 01:15:19;;;;;;;3.30;2.33;;;;;;;;;;5066767;28;20393;-81
2022/05/27 01:17:54;;;;;;;2.47;1.80;;;;;;;;;;5069664;28;20456;-83
2022/05/27 01:20:32;;;;;;;5.67;2.20;;;;;;;;;;5071214;28;20413;-84
2022/05/27 01:23:21;;;;;;;2.50;2.00;;;;;;;;;;5066327;28;20463;-81
2022/05/27 01:25:54;;;;;;;2.87;2.40;;;;;;;;;;5067943;28;20374;-81
2022/05/27 01:28:39;;;;;;;7.73;2.07;;;;;;;;;;5066431;28;20389;-81
2022/05/27 01:31:25;;;;;;;3.70;2.00;;;;;;;;;;5066113;28;20389;-81
2022/05/27 01:34:04;;;;;;;6.17;2.23;;;;;;;;;;5048325;28;20413;-81
2022/05/27 01:36:39;;;;;;;4.50;1.90;;;;;;;;;;5058680;28;20524;-82
2022/05/27 01:39:08;;;;;;;8.33;2.30;;;;;;;;;;5010102;28;20443;-83
2022/05/27 01:41:43;;;;;;;2.53;1.93;;;;;;;;;;5026438;28;20391;-83
2022/05/27 01:44:17;;;;;;;2.40;2.10;;;;;;;;;;5026845;28;20467;-81
2022/05/27 01:46:45;;;;;;;2.70;2.13;;;;;;;;;;5026919;28;20376;-81
2022/05/27 01:49:18;;;;;;;3.80;2.20;;;;;;;;;;5026166;28;20415;-81
2022/05/27 01:51:44;;;;;;;3.87;2.47;;;;;;;;;;5026261;28;20486;-81
2022/05/27 01:54:16;;;;;;;4.30;2.07;;;;;;;;;;5026799;28;20406;-81
2022/05/27 01:56:47;;;;;;;3.30;1.93;;;;;;;;;;5027299;28;20872;-81
2022/05/27 01:59:15;;;;;;;4.87;2.07;;;;;;;;;;5026108;28;20445;-83
2022/05/27 02:01:47;;;;;;;3.37;2.20;;;;;;;;;;5026442;28;20490;-81
2022/05/27 02:04:19;;;;;;;5.77;2.60;;;;;;;;;;5027354;28;20387;-82
2022/05/27 02:06:57;;;;;;;3.93;2.77;;;;;;;;;;5026251;28;20407;-81
2022/05/27 02:09:27;;;;;;;4.40;2.20;;;;;;;;;;5026722;28;20469;-81
2022/05/27 02:11:57;;;;;;;2.93;2.27;;;;;;;;;;5026965;28;20399;-81
2022/05/27 02:14:25;;;;;;;5.20;3.40;;;;;;;;;;5027276;28;20442;-81
2022/05/27 02:16:54;;;;;;;5.60;2.80;;;;;;;;;;5026499;28;20407;-81
2022/05/27 02:19:20;;;;;;;6.60;3.07;;;;;;;;;;5026828;28;20473;-84
2022/05/27 02:21:58;;;;;;;4.90;2.70;;;;;;;;;;5026192;28;20403;-84
2022/05/27 02:24:24;;;;;;;6.00;2.70;;;;;;;;;;5024938;28;20387;-83
2022/05/27 02:26:52;;;;;;;4.60;2.67;;;;;;;;;;5025382;28;20495;-81
2022/05/27 02:29:21;;;;;;;3.93;2.67;;;;;;;;;;5031198;28;20450;-81
2022/05/27 02:31:50;;;;;;;4.40;2.50;;;;;;;;;;5027464;28;20880;-80
2022/05/27 02:37:09;;;;;;;4.37;3.00;;;;;;;;;;5020502;28;20450;-80
2022/05/27 02:39:36;;;;;;;3.47;2.23;;;;;;;;;;5020787;28;20857;-80
2022/05/27 02:42:04;;;;;;;3.30;2.67;;;;;;;;;;5022069;28;20414;-80
2022/05/27 02:44:40;;;;;;;9.53;2.33;;;;;;;;;;5022247;28;20901;-80
2022/05/27 02:47:15;;;;;;;3.70;2.17;;;;;;;;;;5022953;28;20468;-81
2022/05/27 02:49:43;;;;;;;3.93;2.10;;;;;;;;;;5023731;28;20427;-80
2022/05/27 02:52:13;;;;;;;3.50;2.17;;;;;;;;;;5023044;28;20419;-81
2022/05/27 02:54:46;;;;;;;3.60;1.70;;;;;;;;;;5023586;28;20673;-81
2022/05/27 02:57:18;;;;;;;4.63;2.60;;;;;;;;;;5023893;28;20461;-80
2022/05/27 02:59:44;;;;;;;3.73;1.97;;;;;;;;;;5025002;28;20451;-80
2022/05/27 03:02:12;;;;;;;2.33;2.03;;;;;;;;;;5023841;28;20407;-83
2022/05/27 03:04:40;;;;;;;5.43;2.20;;;;;;;;;;5023931;28;20423;-83
2022/05/27 03:07:09;;;;;;;2.60;1.93;;;;;;;;;;5023822;28;20937;-83
2022/05/27 03:09:49;;;;;;;2.87;2.20;;;;;;;;;;5008502;28;20439;-84
2022/05/27 03:12:15;;;;;;;5.17;2.00;;;;;;;;;;5027452;28;20486;-84
2022/05/27 03:15:02;;;;;;;2.30;2.00;;;;;;;;;;5040547;28;20996;-83
2022/05/27 03:17:36;;;;;;;3.40;2.03;;;;;;;;;;5045444;28;20814;-83
2022/05/27 03:20:02;;;;;;;6.60;1.60;;;;;;;;;;5045938;28;20414;-83
2022/05/27 03:22:47;;;;;;;3.63;2.27;;;;;;;;;;5045658;28;20403;-83
2022/05/27 03:25:25;;;;;;;2.57;1.70;;;;;;;;;;5044560;28;20390;-81
2022/05/27 03:27:59;;;;;;;4.73;2.03;;;;;;;;;;5047880;28;20769;-82
2022/05/27 03:30:37;;;;;;;2.93;1.93;;;;;;;;;;5057056;28;20429;-81
2022/05/27 03:33:22;;;;;;;2.20;1.93;;;;;;;;;;5053579;28;20409;-82
2022/05/27 03:36:01;;;;;;;3.53;2.17;;;;;;;;;;5052155;28;20770;-82
2022/05/27 03:38:33;;;;;;;3.57;1.77;;;;;;;;;;5051890;28;20834;-82
2022/05/27 03:41:04;;;;;;;2.53;1.97;;;;;;;;;;5049408;28;20902;-82
2022/05/27 03:43:32;;;;;;;2.33;2.07;;;;;;;;;;5048500;28;20384;-82
2022/05/27 03:45:59;;;;;;;4.80;2.17;;;;;;;;;;5048635;28;20494;-82
2022/05/27 03:48:26;;;;;;;2.60;1.90;;;;;;;;;;5049096;28;20429;-82
2022/05/27 03:50:53;;;;;;;3.27;1.70;;;;;;;;;;5049208;28;20501;-82
2022/05/27 03:53:20;;;;;;;3.70;2.57;;;;;;;;;;5049091;28;20406;-83
2022/05/27 03:55:46;;;;;;;2.37;1.90;;;;;;;;;;5051582;28;20395;-82
2022/05/27 03:58:13;;;;;;;3.57;1.97;;;;;;;;;;5056721;28;20438;-81
2022/05/27 04:00:39;;;;;;;2.83;1.80;;;;;;;;;;5058771;28;20485;-83
2022/05/27 04:03:06;;;;;;;3.93;2.20;;;;;;;;;;5077369;28;20463;-81
2022/05/27 04:05:32;;;;;;;2.60;1.90;;;;;;;;;;5077352;28;20389;-82
2022/05/27 04:07:58;;;;;;;3.40;1.90;;;;;;;;;;5059721;28;20426;-81
2022/05/27 04:10:24;;;;;;;7.77;1.70;;;;;;;;;;5076826;28;20428;-82
2022/05/27 04:12:50;;;;;;;4.73;2.10;;;;;;;;;;5070595;28;20412;-82
2022/05/27 04:15:16;;;;;;;2.90;1.63;;;;;;;;;;5069090;28;20439;-82
2022/05/27 04:17:42;;;;;;;2.10;1.70;;;;;;;;;;5069555;28;20476;-82
2022/05/27 04:20:08;;;;;;;5.20;3.73;;;;;;;;;;5075443;28;20456;-82
2022/05/27 04:22:34;;;;;;;3.97;2.10;;;;;;;;;;5076390;28;20393;-82
2022/05/27 04:25:01;;;;;;;3.30;1.80;;;;;;;;;;5076324;28;20481;-82
2022/05/27 04:27:28;;;;;;;3.93;2.33;;;;;;;;;;5076866;28;20417;-82
2022/05/27 04:29:55;;;;;;;3.47;2.50;;;;;;;;;;5075884;28;20489;-82
2022/05/27 04:32:21;;;;;;;6.57;2.00;;;;;;;;;;5076005;28;20392;-82
2022/05/27 04:34:48;;;;;;;2.20;1.93;;;;;;;;;;5075930;28;20404;-82
2022/05/27 04:37:14;;;;;;;2.40;1.73;;;;;;;;;;5075706;28;20876;-82
2022/05/27 04:39:40;;;;;;;3.63;2.17;;;;;;;;;;5070319;28;20455;-82
2022/05/27 04:42:06;;;;;;;3.97;2.07;;;;;;;;;;5068897;28;20418;-83
2022/05/27 04:44:34;;;;;;;2.83;2.10;;;;;;;;;;5051117;28;20457;-83
2022/05/27 04:47:00;;;;;;;6.10;1.90;;;;;;;;;;5068659;28;20761;-82
2022/05/27 04:52:11;;;;;;;3.60;2.00;;;;;;;;;;5068082;28;20417;-83
2022/05/27 04:54:37;;;;;;;3.60;2.27;;;;;;;;;;5067700;28;20909;-82
2022/05/27 04:57:03;;;;;;;2.70;2.13;;;;;;;;;;5068160;28;20449;-82
2022/05/27 04:59:29;;;;;;;4.07;2.00;;;;;;;;;;5068523;28;20445;-82
2022/05/27 05:01:55;;;;;;;2.60;2.00;;;;;;;;;;5068285;28;20455;-82
2022/05/27 05:04:21;;;;;;;2.77;2.23;;;;;;;;;;5068337;28;20501;-82
2022/05/27 05:06:47;;;;;;;4.30;1.80;;;;;;;;;;5068027;28;20398;-82
2022/05/27 05:09:13;;;;;;;3.30;1.73;;;;;;;;;;5068313;28;20417;-83
2022/05/27 05:11:39;;;;;;;4.73;1.90;;;;;;;;;;5050090;28;20490;-82
2022/05/27 05:14:05;;;;;;;5.03;3.13;;;;;;;;;;5067694;28;20402;-82
2022/05/27 05:16:31;;;;;;;3.20;1.90;;;;;;;;;;5067558;28;20771;-82
2022/05/27 05:18:58;;;;;;;2.57;2.03;;;;;;;;;;5050669;28;20472;-82
2022/05/27 05:21:24;;;;;;;6.60;3.00;;;;;;;;;;5067776;28;20459;-82
2022/05/27 05:23:50;;;;;;;3.17;2.40;;;;;;;;;;5067223;28;20409;-82
2022/05/27 05:26:16;;;;;;;4.30;2.20;;;;;;;;;;5066627;28;20429;-82
2022/05/27 05:28:42;;;;;;;3.60;2.10;;;;;;;;;;5067201;28;20778;-82
2022/05/27 05:31:11;;;;;;;7.63;2.43;;;;;;;;;;5067045;28;20414;-82
2022/05/27 05:33:37;;;;;;;2.70;2.30;;;;;;;;;;5067455;28;20483;-83
2022/05/27 05:36:04;;;;;;;3.37;1.70;;;;;;;;;;5067468;28;20406;-82
2022/05/27 05:38:30;;;;;;;3.93;2.23;;;;;;;;;;5067434;28;20476;-83
2022/05/27 05:40:56;;;;;;;5.73;2.53;;;;;;;;;;5069345;28;20394;-82
2022/05/27 05:43:22;;;;;;;2.90;1.80;;;;;;;;;;5070151;28;20397;-82
2022/05/27 05:45:48;;;;;;;2.53;2.00;;;;;;;;;;5068604;28;20417;-82
2022/05/27 05:48:14;;;;;;;5.53;2.10;;;;;;;;;;5068080;28;20497;-82
2022/05/27 05:50:40;;;;;;;4.17;2.17;;;;;;;;;;5067310;28;20464;-82
2022/05/27 05:53:06;;;;;;;7.90;2.37;;;;;;;;;;5067442;28;20405;-82
2022/05/27 05:55:35;;;;;;;4.10;1.63;;;;;;;;;;5068524;28;20417;-82
2022/05/27 05:58:02;;;;;;;3.40;1.70;;;;;;;;;;5049314;28;20464;-82
2022/05/27 06:00:28;;;;;;;2.70;2.00;;;;;;;;;;5066575;28;20820;-82
2022/05/27 06:02:55;;;;;;;3.43;2.00;;;;;;;;;;5065358;28;20909;-81
2022/05/27 06:05:22;;;;;;;4.00;2.50;;;;;;;;;;5054969;28;20464;-81
2022/05/27 06:07:48;;;;;;;2.90;1.90;;;;;;;;;;5055449;28;20405;-81
2022/05/27 06:10:15;;;;;;;2.80;1.80;;;;;;;;;;5056405;28;20422;-81
2022/05/27 06:12:42;;;;;;;6.30;1.70;;;;;;;;;;5039637;28;20413;-81
2022/05/27 06:15:09;;;;;;;5.97;1.70;;;;;;;;;;5056488;28;20965;-81
2022/05/27 06:17:35;;;;;;;3.10;1.67;;;;;;;;;;5057294;28;20453;-81
2022/05/27 06:20:01;;;;;;;2.57;1.40;;;;;;;;;;5059261;28;20425;-82
2022/05/27 06:22:28;;;;;;;2.73;2.10;;;;;;;;;;5059001;28;20459;-82
2022/05/27 06:24:54;;;;;;;4.50;2.03;;;;;;;;;;5060435;28;20397;-82
2022/05/27 06:27:20;;;;;;;6.13;2.03;;;;;;;;;;5061773;28;20489;-82
2022/05/27 06:35:15;;;;;;;3.57;1.63;;;;;;;;;;5058705;28;20758;-82
2022/05/27 06:37:41;;;;;;;2.67;1.60;;;;;;;;;;5060760;28;20964;-82
2022/05/27 06:40:07;;;;;;;8.87;2.40;;;;;;;;;;5062027;28;20476;-82
2022/05/27 06:42:34;;;;;;;2.80;1.90;;;;;;;;;;5062689;28;20398;-82
2022/05/27 06:45:00;;;;;;;4.70;1.93;;;;;;;;;;5064689;28;20405;-82
2022/05/27 06:47:26;;;;;;;3.97;1.97;;;;;;;;;;5066222;28;20410;-82
2022/05/27 06:49:52;;;;;;;3.97;1.60;;;;;;;;;;5066703;28;20433;-82
2022/05/27 06:52:18;;;;;;;3.47;2.00;;;;;;;;;;5065849;28;20401;-83
2022/05/27 06:54:45;;;;;;;3.27;1.63;;;;;;;;;;5049466;28;20406;-82
2022/05/27 06:57:11;;;;;;;2.37;1.67;;;;;;;;;;5067651;28;20460;-82
2022/05/27 06:59:37;;;;;;;2.30;1.70;;;;;;;;;;5073649;23;20496;-86
2022/05/27 07:02:04;;;;;;;2.60;1.30;;;;;;;;;;5044198;28;20429;-86
2022/05/27 07:04:30;;;;;;;2.43;1.60;;;;;;;;;;5028352;28;20404;-85
2022/05/27 07:06:57;;;;;;;3.07;1.80;;;;;;;;;;5033334;28;20396;-85
2022/05/27 07:09:23;;;;;;;3.73;1.53;;;;;;;;;;5029431;28;20424;-85
2022/05/27 07:11:50;;;;;;;4.03;1.47;;;;;;;;;;5029466;28;20398;-86
2022/05/27 07:14:17;;;;;;;2.13;1.40;;;;;;;;;;5029494;28;20509;-85
2022/05/27 07:16:44;;;;;;;4.03;1.70;;;;;;;;;;5031767;28;20402;-85
2022/05/27 07:19:10;;;;;;;2.83;1.77;;;;;;;;;;5032215;28;20466;-86
2022/05/27 07:21:39;;;;;;;3.63;1.40;;;;;;;;;;5029941;28;20427;-84
2022/05/27 07:24:05;;;;;;;3.77;1.53;;;;;;;;;;5018835;28;20395;-84
2022/05/27 07:26:31;;;;;;;4.77;1.70;;;;;;;;;;5019019;28;20468;-84
2022/05/27 07:28:57;;;;;;;7.43;1.67;;;;;;;;;;5021064;28;20891;-84
2022/05/27 07:31:23;;;;;;;2.23;1.33;;;;;;;;;;5020331;28;20399;-84
2022/05/27 07:33:49;;;;;;;4.80;1.47;;;;;;;;;;5022840;28;20499;-84
2022/05/27 07:36:15;;;;;;;4.00;1.40;;;;;;;;;;5024027;28;20441;-85
2022/05/27 07:38:41;;;;;;;3.27;1.50;;;;;;;;;;5028494;28;20523;-84
2022/05/27 07:41:07;;;;;;;2.77;1.40;;;;;;;;;;5027948;28;20423;-85
2022/05/27 07:43:33;;;;;;;3.43;1.73;;;;;;;;;;5010469;28;20419;-85
2022/05/27 07:45:59;;;;;;;2.47;1.50;;;;;;;;;;5028709;28;20451;-85
2022/05/27 07:48:26;;;;;;;3.87;1.63;;;;;;;;;;5032792;28;20429;-85
2022/05/27 07:50:52;;;;;;;2.50;1.50;;;;;;;;;;5041154;28;20939;-86
2022/05/27 07:53:19;;;;;;;2.40;1.50;;;;;;;;;;5042035;28;20431;-86
2022/05/27 07:55:45;;;;;;;2.13;1.40;;;;;;;;;;5042265;28;20414;-85
2022/05/27 07:58:11;;;;;;;3.27;1.20;;;;;;;;;;5042437;28;21025;-85
2022/05/27 08:00:38;;;;;;;2.03;1.40;;;;;;;;;;5024672;28;20973;-85
2022/05/27 08:03:04;;;;;;;3.00;1.40;;;;;;;;;;5041766;28;20403;-86
2022/05/27 08:05:32;;;;;;;3.13;1.40;;;;;;;;;;5041210;28;20437;-86
2022/05/27 08:07:58;;;;;;;4.53;1.90;;;;;;;;;;5024206;28;20418;-85
2022/05/27 08:10:26;;;;;;;3.20;1.30;;;;;;;;;;5040373;28;20446;-85
2022/05/27 08:12:52;;;;;;;4.50;1.80;;;;;;;;;;5023196;28;20430;-85
2022/05/27 08:15:18;;;;;;;3.73;1.80;;;;;;;;;;5022447;28;20418;-85
2022/05/27 08:17:44;;;;;;;2.93;1.60;;;;;;;;;;5042374;28;20461;-85
2022/05/27 08:20:12;;;;;;;3.30;1.57;;;;;;;;;;5042106;28;20426;-85
2022/05/27 08:22:39;;;;;;;4.10;1.83;;;;;;;;;;5043649;28;20418;-86
2022/05/27 08:25:05;;;;;;;2.97;1.40;;;;;;;;;;5043299;28;20513;-85
2022/05/27 08:27:31;;;;;;;2.17;1.30;;;;;;;;;;5044618;28;20485;-86
2022/05/27 08:29:57;;;;;;;3.73;1.50;;;;;;;;;;5045512;28;20442;-85
2022/05/27 08:32:23;;;;;;;3.87;1.77;;;;;;;;;;5043985;28;20418;-86
2022/05/27 08:40:25;;;;;;;3.70;1.53;;;;;;;;;;5032582;28;20442;-86
2022/05/27 08:42:57;;;;;;;4.07;1.67;;;;;;;;;;5047911;28;20382;-87
2022/05/27 08:45:42;;;;;;;7.50;2.00;;;;;;;;;;5047239;28;20396;-87
2022/05/27 08:48:09;;;;;;;8.60;2.27;;;;;;;;;;5048045;28;20815;-87
2022/05/27 08:50:38;;;;;;;3.20;2.07;;;;;;;;;;5045939;28;20477;-85
2022/05/27 08:53:13;;;;;;;2.73;1.70;;;;;;;;;;5045642;28;20411;-86
2022/05/27 09:01:29;;;;;;;3.83;1.93;;;;;;;;;;5046950;28;20390;-86
2022/05/27 09:03:55;;;;;;;2.63;1.50;;;;;;;;;;5047520;28;20426;-87
2022/05/27 09:06:25;;;;;;;3.50;1.60;;;;;;;;;;5047389;28;20401;-87
2022/05/27 09:08:51;;;;;;;5.17;1.67;;;;;;;;;;5047448;28;20391;-87
2022/05/27 09:11:30;;;;;;;2.77;1.40;;;;;;;;;;5046561;28;20414;-86
2022/05/27 09:14:08;;;;;;;3.77;1.40;;;;;;;;;;5030279;28;20768;-86
2022/05/27 09:16:38;;;;;;;3.63;1.30;;;;;;;;;;5046150;28;20407;-87
2022/05/27 09:19:14;;;;;;;5.57;1.97;;;;;;;;;;5048076;28;20450;-86
2022/05/27 09:21:40;;;;;;;3.67;1.83;;;;;;;;;;5049975;28;20402;-86
2022/05/27 09:24:11;;;;;;;2.60;1.20;;;;;;;;;;5049482;28;20409;-86
2022/05/27 09:26:46;;;;;;;4.43;1.73;;;;;;;;;;5030619;28;20413;-87
2022/05/27 09:29:24;;;;;;;2.53;1.30;;;;;;;;;;5047716;28;20501;-87
2022/05/27 09:31:52;;;;;;;3.97;1.77;;;;;;;;;;5047190;28;20466;-87
2022/05/27 09:34:18;;;;;;;3.13;1.40;;;;;;;;;;5046808;28;20415;-87
2022/05/27 09:36:50;;;;;;;1.87;1.30;;;;;;;;;;5047381;28;20411;-87
2022/05/27 09:39:19;;;;;;;5.17;1.60;;;;;;;;;;5046247;28;20430;-87
2022/05/27 09:41:52;;;;;;;2.37;1.30;;;;;;;;;;5047110;28;20395;-87
2022/05/27 09:44:25;;;;;;;9.13;1.67;;;;;;;;;;5046451;28;20398;-86
2022/05/27 09:46:51;;;;;;;2.47;1.37;;;;;;;;;;5047490;28;20466;-87
2022/05/27 09:49:17;;;;;;;3.43;1.63;;;;;;;;;;5046495;28;20425;-86
2022/05/27 09:51:43;;;;;;;2.77;1.70;;;;;;;;;;5053393;28;20740;-85
2022/05/27 09:54:23;;;;;;;4.17;1.50;;;;;;;;;;5032572;28;20490;-85
2022/05/27 09:56:58;;;;;;;2.83;1.47;;;;;;;;;;5033324;28;20390;-85
2022/05/27 09:59:34;;;;;;;3.60;1.63;;;;;;;;;;5049100;28;20472;-85
2022/05/27 10:02:15;;;;;;;5.87;1.23;;;;;;;;;;5046694;28;20386;-87
2022/05/27 10:04:54;;;;;;;2.70;1.33;;;;;;;;;;5047748;28;20406;-85
2022/05/27 10:07:36;;;;;;;3.73;1.50;;;;;;;;;;5047159;28;20402;-87
2022/05/27 10:10:19;;;;;;;1.90;1.33;;;;;;;;;;5046415;28;20436;-86
2022/05/27 10:12:46;;;;;;;2.73;1.47;;;;;;;;;;5045766;28;20429;-87
2022/05/27 10:15:25;;;;;;;2.73;1.30;;;;;;;;;;5028001;28;20425;-87
2022/05/27 10:17:52;;;;;;;2.87;1.30;;;;;;;;;;5047212;28;20441;-88
2022/05/27 10:20:22;;;;;;;2.57;1.53;;;;;;;;;;5046815;28;20509;-86
2022/05/27 10:23:05;;;;;;;3.10;1.37;;;;;;;;;;5046008;28;20501;-86
2022/05/27 10:25:33;;;;;;;7.40;1.70;;;;;;;;;;5029083;28;20410;-85
2022/05/27 10:27:59;;;;;;;3.10;1.67;;;;;;;;;;5046982;28;20418;-86
2022/05/27 10:30:26;;;;;;;7.10;1.60;;;;;;;;;;5047179;28;20425;-85
2022/05/27 10:32:52;;;;;;;4.90;1.80;;;;;;;;;;5033712;28;20421;-86
2022/05/27 10:35:21;;;;;;;2.70;1.67;;;;;;;;;;5046258;28;20425;-86
2022/05/27 10:37:47;;;;;;;2.13;1.37;;;;;;;;;;5044753;28;20527;-87
2022/05/27 10:40:24;;;;;;;4.73;1.70;;;;;;;;;;5049320;28;20502;-86
2022/05/27 10:43:08;;;;;;;3.30;1.83;;;;;;;;;;5047824;28;20402;-85
2022/05/27 10:45:38;;;;;;;2.47;1.37;;;;;;;;;;5047599;28;20398;-86
2022/05/27 10:48:11;;;;;;;4.77;1.40;;;;;;;;;;5047469;28;20417;-86
2022/05/27 10:50:45;;;;;;;5.20;1.47;;;;;;;;;;5048928;28;20433;-87
2022/05/27 10:53:16;;;;;;;5.20;1.20;;;;;;;;;;5044841;28;20796;-85
2022/05/27 10:55:54;;;;;;;3.23;1.73;;;;;;;;;;5039231;28;20402;-85
2022/05/27 11:04:11;;;;;;;2.70;1.23;;;;;;;;;;5041655;28;20795;-86
2022/05/27 11:06:37;;;;;;;2.67;1.30;;;;;;;;;;5042914;28;20394;-86
2022/05/27 11:09:03;;;;;;;3.17;1.20;;;;;;;;;;5044497;28;20429;-87
2022/05/27 11:11:29;;;;;;;6.23;1.57;;;;;;;;;;5047960;28;20407;-87
2022/05/27 11:16:57;;;;;;;2.57;1.67;;;;;;;;;;5046902;28;20444;-87
2022/05/27 11:19:29;;;;;;;2.70;1.33;;;;;;;;;;5038149;28;20469;-86
2022/05/27 11:22:08;;;;;;;3.70;1.53;;;;;;;;;;5048169;28;20421;-86
2022/05/27 11:24:37;;;;;;;3.00;1.33;;;;;;;;;;5020033;28;20427;-86
2022/05/27 11:27:21;;;;;;;4.90;1.63;;;;;;;;;;5044071;28;20514;-85
2022/05/27 11:29:53;;;;;;;3.00;1.53;;;;;;;;;;5046826;28;20785;-86
2022/05/27 11:32:32;;;;;;;3.30;1.50;;;;;;;;;;5043436;28;20437;-86
2022/05/27 11:35:01;;;;;;;2.10;1.30;;;;;;;;;;5045112;28;20425;-86
2022/05/27 11:37:35;;;;;;;2.63;1.17;;;;;;;;;;5044930;28;20893;-85
2022/05/27 11:40:04;;;;;;;2.63;1.50;;;;;;;;;;5047009;28;20422;-86
2022/05/27 11:42:37;;;;;;;7.57;1.70;;;;;;;;;;5043650;28;20433;-87
2022/05/27 11:45:24;;;;;;;2.27;1.10;;;;;;;;;;5048121;28;20410;-86
2022/05/27 11:47:58;;;;;;;5.63;1.47;;;;;;;;;;5029279;28;20442;-87
2022/05/27 11:50:30;;;;;;;3.70;1.30;;;;;;;;;;5044026;28;20456;-87
2022/05/27 11:52:59;;;;;;;3.33;1.20;;;;;;;;;;5050905;28;20422;-86
2022/05/27 11:55:33;;;;;;;4.80;1.50;;;;;;;;;;5041682;28;20402;-86
2022/05/27 11:58:18;;;;;;;5.70;1.40;;;;;;;;;;5023617;28;20862;-86
2022/05/27 12:01:00;;;;;;;2.60;1.40;;;;;;;;;;5035159;28;20461;-87
2022/05/27 12:03:39;;;;;;;2.23;1.20;;;;;;;;;;5041439;28;20437;-86
2022/05/27 12:06:08;;;;;;;2.10;1.30;;;;;;;;;;5020131;28;20387;-86
2022/05/27 12:08:49;;;;;;;2.50;1.10;;;;;;;;;;5011803;28;20422;-85
2022/05/27 12:11:15;;;;;;;3.80;1.80;;;;;;;;;;5045471;28;20473;-86
2022/05/27 12:13:44;;;;;;;2.50;1.50;;;;;;;;;;5050999;28;20417;-86
2022/05/27 12:16:15;;;;;;;2.80;1.20;;;;;;;;;;5049551;28;20418;-87
2022/05/27 12:18:45;;;;;;;2.03;1.07;;;;;;;;;;5043738;28;20462;-85
2022/05/27 12:21:13;;;;;;;2.17;1.17;;;;;;;;;;5047099;28;20430;-85
2022/05/27 12:23:42;;;;;;;2.00;1.30;;;;;;;;;;5051337;28;20419;-86
2022/05/27 12:26:08;;;;;;;2.00;1.10;;;;;;;;;;5049796;28;20395;-85
2022/05/27 12:28:36;;;;;;;2.37;1.10;;;;;;;;;;5048979;28;20434;-86
2022/05/27 12:31:03;;;;;;;2.07;1.00;;;;;;;;;;5051613;28;20454;-85
2022/05/27 12:33:30;;;;;;;3.67;1.23;;;;;;;;;;5049990;28;20422;-86
2022/05/27 12:35:59;;;;;;;1.90;1.20;;;;;;;;;;5031119;28;20418;-85
2022/05/27 12:38:29;;;;;;;2.20;1.20;;;;;;;;;;5046284;28;20504;-87
2022/05/27 12:41:06;;;;;;;3.37;1.20;;;;;;;;;;5028057;28;20517;-85
2022/05/27 12:43:34;;;;;;;4.40;1.33;;;;;;;;;;5029404;28;20414;-86
2022/05/27 12:46:03;;;;;;;5.50;1.40;;;;;;;;;;5044743;28;20438;-85
2022/05/27 12:48:38;;;;;;;2.17;1.13;;;;;;;;;;5044321;28;20442;-85
2022/05/27 12:51:04;;;;;;;4.90;1.40;;;;;;;;;;5046361;28;20438;-87
2022/05/27 12:53:36;;;;;;;4.83;1.40;;;;;;;;;;5044705;28;20444;-87
2022/05/27 13:02:18;;;;;;;1.93;1.23;;;;;;;;;;5052969;23;20493;-84
2022/05/27 13:04:44;;;;;;;2.43;1.30;;;;;;;;;;5023104;28;20453;-82
2022/05/27 13:07:11;;;;;;;2.53;1.47;;;;;;;;;;5024536;28;20435;-81
2022/05/27 13:09:41;;;;;;;2.93;1.57;;;;;;;;;;5006880;28;20392;-82
2022/05/27 13:12:10;;;;;;;4.10;1.30;;;;;;;;;;5032518;28;20449;-82
2022/05/27 13:14:45;;;;;;;2.90;1.57;;;;;;;;;;5034902;28;20476;-82
2022/05/27 13:17:31;;;;;;;4.47;1.43;;;;;;;;;;5031359;28;20441;-82
2022/05/27 13:20:07;;;;;;;3.37;1.57;;;;;;;;;;5046144;28;20414;-82
2022/05/27 13:22:38;;;;;;;3.83;1.60;;;;;;;;;;5041506;28;20464;-82
2022/05/27 13:25:25;;;;;;;4.53;1.37;;;;;;;;;;5045869;28;20481;-82
2022/05/27 13:27:59;;;;;;;2.67;1.20;;;;;;;;;;5027018;28;20427;-82
2022/05/27 13:30:45;;;;;;;3.97;1.33;;;;;;;;;;5025121;28;20419;-82
2022/05/27 13:33:12;;;;;;;1.97;1.20;;;;;;;;;;5026234;28;20521;-82
2022/05/27 13:35:41;;;;;;;4.23;1.40;;;;;;;;;;5023125;28;20451;-82
2022/05/27 13:38:10;;;;;;;4.53;1.30;;;;;;;;;;5007868;28;20533;-83
2022/05/27 13:40:36;;;;;;;5.50;1.60;;;;;;;;;;5043622;28;20449;-83
2022/05/27 13:43:07;;;;;;;3.40;1.43;;;;;;;;;;5038270;28;20526;-82
2022/05/27 13:45:39;;;;;;;2.23;1.20;;;;;;;;;;5007101;28;20403;-82
2022/05/27 13:48:14;;;;;;;3.03;1.40;;;;;;;;;;5009587;28;20427;-82
2022/05/27 13:50:47;;;;;;;3.30;1.60;;;;;;;;;;5026540;28;20422;-82
2022/05/27 13:53:25;;;;;;;2.30;1.63;;;;;;;;;;5035740;28;20456;-82
2022/05/27 13:55:56;;;;;;;4.67;1.60;;;;;;;;;;5008861;28;20431;-84
2022/05/27 13:58:26;;;;;;;2.30;1.30;;;;;;;;;;5026958;28;20456;-83
2022/05/27 14:00:52;;;;;;;2.53;1.37;;;;;;;;;;5026454;28;20431;-82
2022/05/27 14:03:41;;;;;;;4.17;1.50;;;;;;;;;;5036974;28;20443;-83
2022/05/27 14:06:09;;;;;;;1.73;1.20;;;;;;;;;;4997243;28;20526;-82
2022/05/27 14:08:35;;;;;;;2.40;1.40;;;;;;;;;;5015944;28;20426;-82
2022/05/27 14:11:06;;;;;;;3.30;1.50;;;;;;;;;;5022897;28;20422;-82
2022/05/27 14:13:32;;;;;;;5.40;1.70;;;;;;;;;;5028371;28;20434;-82
2022/05/27 14:15:59;;;;;;;2.20;1.30;;;;;;;;;;5032315;28;20459;-83
2022/05/27 14:18:32;;;;;;;3.00;1.60;;;;;;;;;;5020668;28;20449;-82
2022/05/27 14:23:45;;;;;;;4.10;1.97;;;;;;;;;;5038246;28;20432;-83
2022/05/27 14:26:12;;;;;;;2.00;1.03;;;;;;;;;;5028543;28;20490;-81
2022/05/27 14:28:38;;;;;;;8.17;2.00;;;;;;;;;;5025594;28;20678;-82
2022/05/27 14:31:13;;;;;;;2.77;1.50;;;;;;;;;;5013740;28;20919;-83
2022/05/27 14:33:41;;;;;;;5.43;1.40;;;;;;;;;;5011613;28;20468;-83
2022/05/27 14:36:08;;;;;;;2.30;1.40;;;;;;;;;;5024143;28;20423;-83
2022/05/27 14:38:39;;;;;;;4.47;1.37;;;;;;;;;;5017778;28;20461;-83
2022/05/27 14:41:07;;;;;;;3.80;1.50;;;;;;;;;;5022872;28;20426;-82
2022/05/27 14:43:46;;;;;;;2.33;1.43;;;;;;;;;;5023880;28;20474;-83
2022/05/27 14:46:17;;;;;;;3.23;1.40;;;;;;;;;;5031458;28;20414;-83
2022/05/27 14:48:44;;;;;;;3.30;1.70;;;;;;;;;;5036169;28;20485;-82
2022/05/27 14:51:28;;;;;;;3.50;1.70;;;;;;;;;;5024279;28;20470;-81
2022/05/27 14:53:56;;;;;;;4.57;1.63;;;;;;;;;;5013643;28;20418;-81
2022/05/27 14:56:28;;;;;;;2.53;1.30;;;;;;;;;;5045525;28;20456;-83
2022/05/27 14:59:02;;;;;;;5.30;1.73;;;;;;;;;;5042636;28;20535;-83
2022/05/27 15:01:38;;;;;;;2.40;1.30;;;;;;;;;;5030352;28;20445;-82
2022/05/27 15:04:27;;;;;;;4.07;1.40;;;;;;;;;;5052860;28;20399;-82
2022/05/27 15:06:55;;;;;;;4.10;1.70;;;;;;;;;;5041167;28;20418;-82
2022/05/27 15:09:23;;;;;;;3.93;1.63;;;;;;;;;;5038794;28;20426;-82
2022/05/27 15:11:49;;;;;;;7.27;1.73;;;;;;;;;;5050282;28;20482;-82
2022/05/27 15:14:29;;;;;;;3.87;1.50;;;;;;;;;;5029811;28;20430;-82
2022/05/27 15:16:57;;;;;;;3.00;1.30;;;;;;;;;;5025560;28;20438;-83
2022/05/27 15:19:24;;;;;;;2.73;1.47;;;;;;;;;;5022189;28;20451;-82
2022/05/27 15:21:55;;;;;;;3.13;1.70;;;;;;;;;;5039506;28;20468;-82
2022/05/27 15:24:29;;;;;;;5.50;1.60;;;;;;;;;;5042140;28;20422;-82
2022/05/27 15:35:43;;;;;;;2.50;1.90;;;;;;;;;;5040004;28;20453;-84
2022/05/27 15:38:11;;;;;;;3.40;1.70;;;;;;;;;;5025544;28;20461;-82
2022/05/27 15:40:39;;;;;;;4.30;1.63;;;;;;;;;;5026897;28;20438;-82
2022/05/27 15:43:16;;;;;;;2.60;1.67;;;;;;;;;;5036879;28;20946;-82
2022/05/27 15:45:44;;;;;;;2.90;1.67;;;;;;;;;;5010980;28;20450;-82
2022/05/27 15:48:11;;;;;;;3.07;1.80;;;;;;;;;;5041451;28;20513;-82